Time;durP1;ratioP1;P1;durP2;ratioP2;P2;SDS_P1;SDS_P2;PMS_P1;PMS_P2;Temp;Humidity;BMP_temperature;BMP_pressure;BME280_temperature;BME280_humidity;BME280_pressure;Samples;Min_cycle;Max_cycle;Signal;HPM_P1;HPM_P2
2024/01/29 00:01:52;;;;;;;8.15;4.95;;;;;;;-3.58;100.00;99601.22;1225586;75;2914314;-67
2024/01/29 00:04:25;;;;;;;8.35;5.10;;;;;;;-3.54;100.00;99591.44;1225376;75;2916785;-65
2024/01/29 00:06:58;;;;;;;7.85;4.25;;;;;;;-3.49;100.00;99597.38;1225212;75;2918284;-64
2024/01/29 00:09:31;;;;;;;9.10;4.80;;;;;;;-3.56;100.00;99604.34;1225856;75;2913352;-67
2024/01/29 00:12:07;;;;;;;8.90;5.20;;;;;;;-3.63;100.00;99599.56;1225825;75;2920403;-67
2024/01/29 00:14:40;;;;;;;8.80;5.30;;;;;;;-3.82;100.00;99600.09;1225601;75;2916404;-66
2024/01/29 00:17:12;;;;;;;10.30;6.15;;;;;;;-3.82;100.00;99599.28;1225230;75;2914747;-67
2024/01/29 00:19:45;;;;;;;10.45;5.90;;;;;;;-3.79;100.00;99599.44;1225124;75;2919208;-66
2024/01/29 00:22:18;;;;;;;10.00;6.00;;;;;;;-3.69;100.00;99595.53;1224636;75;2915023;-66
2024/01/29 00:24:51;;;;;;;11.55;5.45;;;;;;;-3.64;100.00;99611.38;1225145;75;2911388;-64
2024/01/29 00:27:26;;;;;;;9.65;5.45;;;;;;;-3.69;100.00;99609.69;1225220;75;2919713;-67
2024/01/29 00:30:01;;;;;;;7.70;5.05;;;;;;;-3.61;100.00;99608.03;1225815;75;2911669;-64
2024/01/29 00:32:33;;;;;;;7.30;4.40;;;;;;;-3.61;100.00;99617.97;1225747;75;2915939;-65
2024/01/29 00:35:07;;;;;;;6.15;3.90;;;;;;;-3.63;100.00;99612.97;1224595;75;2934925;-67
2024/01/29 00:37:40;;;;;;;5.60;3.50;;;;;;;-3.59;100.00;99603.13;1225700;75;2916097;-67
2024/01/29 00:40:15;;;;;;;6.05;3.70;;;;;;;-3.61;100.00;99612.59;1225483;75;2910556;-67
2024/01/29 00:42:51;;;;;;;6.65;3.50;;;;;;;-3.63;100.00;99610.28;1224816;75;2924571;-67
2024/01/29 00:45:24;;;;;;;6.30;3.50;;;;;;;-3.65;100.00;99612.50;1226232;75;2912098;-66
2024/01/29 00:47:56;;;;;;;5.60;3.75;;;;;;;-3.74;100.00;99599.22;1225246;75;2917473;-67
2024/01/29 00:50:29;;;;;;;6.75;4.25;;;;;;;-3.63;100.00;99607.59;1225216;75;2913762;-66
2024/01/29 00:53:02;;;;;;;6.10;3.30;;;;;;;-3.64;100.00;99606.03;1224919;75;2912885;-67
2024/01/29 00:55:35;;;;;;;6.85;3.80;;;;;;;-3.68;100.00;99599.75;1224641;75;2920007;-65
2024/01/29 00:58:10;;;;;;;7.65;4.15;;;;;;;-3.72;100.00;99606.91;1223606;75;2916450;-65
2024/01/29 01:00:44;;;;;;;7.70;4.50;;;;;;;-3.78;100.00;99602.88;1222858;75;2922586;-66
2024/01/29 01:03:17;;;;;;;6.90;4.15;;;;;;;-3.71;100.00;99605.78;1224149;75;2918356;-66
2024/01/29 01:05:50;;;;;;;6.45;3.55;;;;;;;-3.83;100.00;99595.84;1225182;75;2912718;-66
2024/01/29 01:08:23;;;;;;;7.75;4.50;;;;;;;-3.98;100.00;99601.84;1224892;75;2922230;-65
2024/01/29 01:10:56;;;;;;;11.35;6.35;;;;;;;-4.04;100.00;99600.47;1225158;67;2921202;-64
2024/01/29 01:13:31;;;;;;;13.25;6.85;;;;;;;-3.98;100.00;99597.25;1225069;75;2920661;-64
2024/01/29 01:16:04;;;;;;;10.60;5.95;;;;;;;-3.80;100.00;99605.09;1225509;75;2919236;-66
2024/01/29 01:18:37;;;;;;;9.35;4.90;;;;;;;-3.81;100.00;99606.22;1224475;75;2919478;-66
2024/01/29 01:21:09;;;;;;;7.20;4.00;;;;;;;-3.78;100.00;99605.56;1225338;75;2919940;-66
2024/01/29 01:23:42;;;;;;;5.30;3.40;;;;;;;-3.79;100.00;99606.69;1223926;75;2923851;-65
2024/01/29 01:26:15;;;;;;;6.00;3.60;;;;;;;-3.90;100.00;99600.94;1225403;75;2915197;-65
2024/01/29 01:28:51;;;;;;;7.80;5.20;;;;;;;-3.87;100.00;99603.75;1225261;75;2918601;-66
2024/01/29 01:31:23;;;;;;;8.35;4.55;;;;;;;-3.89;100.00;99605.22;1225540;75;2913266;-67
2024/01/29 01:33:56;;;;;;;7.55;4.65;;;;;;;-4.01;100.00;99611.31;1224668;75;2921474;-66
2024/01/29 01:36:29;;;;;;;8.20;4.70;;;;;;;-3.90;100.00;99601.72;1225085;75;2916215;-66
2024/01/29 01:39:02;;;;;;;7.75;4.50;;;;;;;-3.88;100.00;99604.09;1224680;75;2919533;-66
2024/01/29 01:41:35;;;;;;;7.85;4.45;;;;;;;-3.93;100.00;99599.72;1225134;75;2915377;-66
2024/01/29 01:44:10;;;;;;;9.05;4.80;;;;;;;-4.10;100.00;99594.56;1225295;75;2917974;-66
2024/01/29 01:46:43;;;;;;;8.90;4.55;;;;;;;-4.04;100.00;99595.91;1224707;75;2922639;-64
2024/01/29 01:49:17;;;;;;;6.55;3.90;;;;;;;-4.08;100.00;99592.34;1223874;75;2920865;-65
2024/01/29 01:51:52;;;;;;;7.25;3.85;;;;;;;-4.10;100.00;99591.88;1225202;75;2914813;-64
2024/01/29 01:54:25;;;;;;;5.60;3.55;;;;;;;-4.04;100.00;99598.59;1224687;75;2926406;-68
2024/01/29 01:56:58;;;;;;;5.05;3.20;;;;;;;-4.16;100.00;99602.00;1224544;75;2914360;-67
2024/01/29 01:59:36;;;;;;;7.25;4.10;;;;;;;-4.23;100.00;99593.75;1225786;75;2918052;-66
2024/01/29 02:02:10;;;;;;;8.10;4.20;;;;;;;-4.34;100.00;99588.00;1226429;75;2917026;-64
2024/01/29 02:04:43;;;;;;;9.80;5.00;;;;;;;-4.42;100.00;99588.09;1226188;75;2914566;-64
2024/01/29 02:07:16;;;;;;;11.90;6.55;;;;;;;-4.42;100.00;99594.22;1225018;75;2917078;-66
2024/01/29 02:09:51;;;;;;;10.40;5.95;;;;;;;-4.34;100.00;99596.03;1226047;75;2896169;-64
2024/01/29 02:12:23;;;;;;;10.25;6.15;;;;;;;-4.32;100.00;99591.13;1225639;75;2937473;-67
2024/01/29 02:14:59;;;;;;;9.80;5.20;;;;;;;-4.21;100.00;99591.53;1225217;75;2918960;-67
2024/01/29 02:17:32;;;;;;;8.65;4.80;;;;;;;-4.29;100.00;99592.38;1225777;75;2921777;-65
2024/01/29 02:20:05;;;;;;;9.40;6.35;;;;;;;-4.29;100.00;99589.69;1225274;75;2914042;-63
2024/01/29 02:22:38;;;;;;;10.70;5.05;;;;;;;-4.35;100.00;99591.03;1225263;75;2914523;-66
2024/01/29 02:25:14;;;;;;;9.35;5.30;;;;;;;-4.31;100.00;99591.91;1225329;75;2916522;-65
2024/01/29 02:27:47;;;;;;;8.30;4.55;;;;;;;-4.36;100.00;99589.44;1224787;75;2925008;-64
2024/01/29 02:30:19;;;;;;;9.25;4.45;;;;;;;-4.37;100.00;99593.22;1225098;75;2918228;-67
2024/01/29 02:32:52;;;;;;;6.45;3.95;;;;;;;-4.35;100.00;99583.78;1225645;75;2925447;-67
2024/01/29 02:35:25;;;;;;;8.25;4.40;;;;;;;-4.34;100.00;99590.66;1225609;75;2918568;-65
2024/01/29 02:37:58;;;;;;;7.15;4.35;;;;;;;-4.30;100.00;99578.22;1224198;75;2924575;-66
2024/01/29 02:40:34;;;;;;;7.15;4.00;;;;;;;-4.42;100.00;99578.19;1225373;75;2916235;-67
2024/01/29 02:43:07;;;;;;;6.60;4.20;;;;;;;-4.48;100.00;99578.69;1225348;75;2913281;-66
2024/01/29 02:45:40;;;;;;;7.40;3.85;;;;;;;-4.49;100.00;99577.91;1224884;75;2942912;-67
2024/01/29 02:48:12;;;;;;;7.30;4.30;;;;;;;-4.62;100.00;99579.72;1225204;75;2919546;-65
2024/01/29 02:50:45;;;;;;;6.25;4.10;;;;;;;-4.63;100.00;99585.41;1225415;75;2915883;-64
2024/01/29 02:53:18;;;;;;;7.00;3.80;;;;;;;-4.63;100.00;99580.84;1225470;75;2919737;-67
2024/01/29 02:55:53;;;;;;;7.35;3.85;;;;;;;-4.57;100.00;99592.94;1225611;75;2921481;-65
2024/01/29 02:58:26;;;;;;;4.60;3.30;;;;;;;-4.59;100.00;99589.00;1225611;75;2923901;-66
2024/01/29 03:00:59;;;;;;;5.90;3.35;;;;;;;-4.72;100.00;99591.59;1225963;75;2912683;-65
2024/01/29 03:03:32;;;;;;;5.55;3.45;;;;;;;-4.71;100.00;99587.06;1225190;75;2921070;-69
2024/01/29 03:06:05;;;;;;;7.10;3.70;;;;;;;-4.88;100.00;99584.50;1225105;75;2921064;-67
2024/01/29 03:08:38;;;;;;;5.80;3.65;;;;;;;-4.82;100.00;99591.22;1224291;75;2925032;-67
2024/01/29 03:11:14;;;;;;;5.80;3.65;;;;;;;-4.81;100.00;99588.22;1224779;75;2925574;-64
2024/01/29 03:13:47;;;;;;;6.35;3.90;;;;;;;-4.84;100.00;99585.41;1224383;75;2914955;-67
2024/01/29 03:16:20;;;;;;;6.20;3.50;;;;;;;-4.85;100.00;99592.66;1225410;75;2915168;-67
2024/01/29 03:18:52;;;;;;;6.95;4.35;;;;;;;-4.97;100.00;99587.22;1225583;75;2920697;-66
2024/01/29 03:21:27;;;;;;;5.40;3.35;;;;;;;-4.87;100.00;99586.06;1224317;75;2915986;-66
2024/01/29 03:24:00;;;;;;;6.20;4.10;;;;;;;-4.95;100.00;99585.03;1225172;75;2926956;-63
2024/01/29 03:26:35;;;;;;;6.50;3.95;;;;;;;-4.96;100.00;99580.78;1224835;75;2925518;-67
2024/01/29 03:29:09;;;;;;;7.05;4.50;;;;;;;-4.95;100.00;99582.34;1224742;67;2920215;-66
2024/01/29 03:31:41;;;;;;;6.75;3.90;;;;;;;-4.96;100.00;99573.53;1224059;67;2928203;-66
2024/01/29 03:34:14;;;;;;;6.20;3.80;;;;;;;-4.93;100.00;99582.78;1224915;75;2920895;-66
2024/01/29 03:36:47;;;;;;;6.20;3.45;;;;;;;-4.92;100.00;99571.78;1224822;75;2921692;-66
2024/01/29 03:39:20;;;;;;;4.60;3.50;;;;;;;-4.93;100.00;99564.09;1225483;75;2918832;-65
2024/01/29 03:41:56;;;;;;;5.30;3.15;;;;;;;-4.94;100.00;99571.31;1225058;75;2922773;-65
2024/01/29 03:44:29;;;;;;;6.40;4.05;;;;;;;-5.08;100.00;99572.69;1225442;75;2914975;-66
2024/01/29 03:47:01;;;;;;;6.60;3.75;;;;;;;-5.06;100.00;99568.59;1224429;75;2933976;-65
2024/01/29 03:49:34;;;;;;;5.00;3.45;;;;;;;-5.02;100.00;99566.06;1220843;75;3065317;-67
2024/01/29 03:52:07;;;;;;;5.95;3.35;;;;;;;-5.01;100.00;99562.28;1223966;75;2929000;-64
2024/01/29 03:54:40;;;;;;;5.95;3.40;;;;;;;-5.02;100.00;99564.16;1225276;75;2913621;-66
2024/01/29 03:57:16;;;;;;;5.50;3.05;;;;;;;-5.10;100.00;99561.53;1225453;75;2918129;-66
2024/01/29 03:59:48;;;;;;;4.55;2.90;;;;;;;-5.10;100.00;99556.19;1224777;75;2918896;-67
2024/01/29 04:02:21;;;;;;;5.45;3.00;;;;;;;-5.09;100.00;99555.88;1224577;75;2917190;-65
2024/01/29 04:04:54;;;;;;;4.90;3.05;;;;;;;-5.17;100.00;99556.72;1224398;75;2920155;-65
2024/01/29 04:07:27;;;;;;;6.65;3.80;;;;;;;-5.12;100.00;99556.53;1223976;75;2927330;-66
2024/01/29 04:10:00;;;;;;;6.05;3.75;;;;;;;-5.12;100.00;99559.22;1224668;75;2923672;-67
2024/01/29 04:12:35;;;;;;;6.45;3.65;;;;;;;-5.11;100.00;99560.00;1224328;75;2942766;-64
2024/01/29 04:15:09;;;;;;;5.30;3.10;;;;;;;-5.13;100.00;99563.75;1224211;75;2920198;-67
2024/01/29 04:17:42;;;;;;;7.55;4.10;;;;;;;-5.21;100.00;99550.47;1224255;75;2919462;-65
2024/01/29 04:20:15;;;;;;;10.80;5.90;;;;;;;-5.20;100.00;99555.47;1224866;75;2919936;-68
2024/01/29 04:22:48;;;;;;;9.50;5.70;;;;;;;-5.24;100.00;99553.78;1224519;75;2923503;-65
2024/01/29 04:25:21;;;;;;;13.60;7.40;;;;;;;-5.02;100.00;99558.81;1224476;75;2927033;-66
2024/01/29 04:27:58;;;;;;;13.45;7.15;;;;;;;-5.22;100.00;99554.22;1224132;75;2928169;-66
2024/01/29 04:30:31;;;;;;;12.35;7.00;;;;;;;-5.21;100.00;99555.81;1223219;83;2982286;-66
2024/01/29 04:33:04;;;;;;;10.25;6.05;;;;;;;-5.25;100.00;99562.88;1224483;75;2936484;-66
2024/01/29 04:35:37;;;;;;;12.90;6.70;;;;;;;-5.45;100.00;99549.19;1224332;75;2922326;-67
2024/01/29 04:38:10;;;;;;;12.65;6.65;;;;;;;-5.37;100.00;99544.91;1223695;75;2921932;-63
2024/01/29 04:40:43;;;;;;;9.75;6.05;;;;;;;-5.25;100.00;99553.00;1224194;75;2931713;-68
2024/01/29 04:43:18;;;;;;;8.85;5.00;;;;;;;-5.33;100.00;99551.16;1223682;75;2922237;-67
2024/01/29 04:45:51;;;;;;;7.60;4.75;;;;;;;-5.23;100.00;99547.34;1223952;75;2919917;-63
2024/01/29 04:48:24;;;;;;;8.20;4.50;;;;;;;-5.26;100.00;99546.09;1223620;75;2930548;-65
2024/01/29 04:50:57;;;;;;;9.40;4.70;;;;;;;-5.36;100.00;99552.59;1223391;75;2927767;-66
2024/01/29 04:53:29;;;;;;;8.20;4.55;;;;;;;-5.49;100.00;99542.91;1225335;75;2919175;-67
2024/01/29 04:56:03;;;;;;;7.30;4.30;;;;;;;-5.46;100.00;99531.63;1223962;75;2922912;-65
2024/01/29 04:58:39;;;;;;;6.05;3.75;;;;;;;-5.40;100.00;99534.88;1224413;75;2930221;-67
2024/01/29 05:01:12;;;;;;;6.15;3.70;;;;;;;-5.37;100.00;99545.66;1224101;75;2925874;-66
2024/01/29 05:03:45;;;;;;;5.85;3.25;;;;;;;-5.43;100.00;99544.31;1223802;75;2931018;-65
2024/01/29 05:06:21;;;;;;;5.30;3.35;;;;;;;-5.59;100.00;99544.06;1223679;75;2943192;-66
2024/01/29 05:08:55;;;;;;;4.70;2.95;;;;;;;-5.58;100.00;99536.81;1223257;75;2926785;-67
2024/01/29 05:11:27;;;;;;;4.10;3.00;;;;;;;-5.47;100.00;99542.59;1224154;75;2924452;-66
2024/01/29 05:14:03;;;;;;;4.75;2.85;;;;;;;-5.47;100.00;99540.72;1224205;75;2917640;-67
2024/01/29 05:16:36;;;;;;;6.10;3.10;;;;;;;-5.59;100.00;99536.06;1221338;75;2929017;-67
2024/01/29 05:19:09;;;;;;;3.75;2.70;;;;;;;-5.51;100.00;99536.34;1223385;75;2926380;-66
2024/01/29 05:21:41;;;;;;;4.85;3.15;;;;;;;-5.50;100.00;99538.69;1224132;75;2920346;-66
2024/01/29 05:24:14;;;;;;;3.90;2.85;;;;;;;-5.54;100.00;99535.09;1223997;75;2924258;-66
2024/01/29 05:26:47;;;;;;;4.45;2.80;;;;;;;-5.55;100.00;99530.09;1224003;75;2924993;-63
2024/01/29 05:29:22;;;;;;;3.60;2.50;;;;;;;-5.55;100.00;99530.09;1223917;75;2953562;-66
2024/01/29 05:31:55;;;;;;;5.30;2.80;;;;;;;-5.51;100.00;99525.66;1224099;75;2930305;-63
2024/01/29 05:34:28;;;;;;;4.40;2.85;;;;;;;-5.58;100.00;99518.97;1224222;67;2919392;-62
2024/01/29 05:37:01;;;;;;;4.20;2.65;;;;;;;-5.62;100.00;99523.38;1224055;75;2932721;-64
2024/01/29 05:39:33;;;;;;;3.30;2.40;;;;;;;-5.67;100.00;99515.53;1224443;75;2932938;-67
2024/01/29 05:42:07;;;;;;;4.25;2.70;;;;;;;-5.72;100.00;99512.25;1223232;75;2922904;-66
2024/01/29 05:44:42;;;;;;;5.45;3.10;;;;;;;-5.82;100.00;99522.22;1224219;75;2926186;-64
2024/01/29 05:47:15;;;;;;;5.30;2.90;;;;;;;-5.70;100.00;99516.19;1224852;75;2921579;-64
2024/01/29 05:49:48;;;;;;;4.00;2.65;;;;;;;-5.75;100.00;99511.00;1224261;75;2917862;-68
2024/01/29 05:52:21;;;;;;;4.25;2.50;;;;;;;-5.68;100.00;99513.97;1224306;75;2933033;-66
2024/01/29 05:54:54;;;;;;;3.90;2.60;;;;;;;-5.81;100.00;99518.44;1223996;75;2933988;-65
2024/01/29 05:57:27;;;;;;;3.95;2.60;;;;;;;-5.76;100.00;99533.47;1224281;75;2925733;-67
2024/01/29 06:00:03;;;;;;;3.15;2.35;;;;;;;-5.72;100.00;99521.06;1223947;75;2932480;-67
2024/01/29 06:02:39;;;;;;;4.00;3.25;;;;;;;-5.78;100.00;99525.78;1223897;75;2925123;-64
2024/01/29 06:05:14;;;;;;;4.65;3.20;;;;;;;-5.79;100.00;99524.22;1222786;75;2926357;-64
2024/01/29 06:07:47;;;;;;;5.25;3.20;;;;;;;-5.84;100.00;99518.28;1224229;75;2928207;-65
2024/01/29 06:10:20;;;;;;;5.70;3.30;;;;;;;-5.81;100.00;99521.09;1224041;75;2921146;-64
2024/01/29 06:12:53;;;;;;;5.85;3.25;;;;;;;-5.79;100.00;99528.78;1223965;75;2920932;-65
2024/01/29 06:15:29;;;;;;;5.90;3.45;;;;;;;-5.81;100.00;99529.09;1223293;75;2931523;-66
2024/01/29 06:18:01;;;;;;;6.80;3.95;;;;;;;-5.80;100.00;99537.88;1223743;75;2921106;-67
2024/01/29 06:20:34;;;;;;;6.05;3.80;;;;;;;-5.74;100.00;99530.50;1223777;75;2927561;-68
2024/01/29 06:23:09;;;;;;;6.85;4.40;;;;;;;-5.75;100.00;99537.69;1223952;75;2934474;-65
2024/01/29 06:25:41;;;;;;;6.95;4.05;;;;;;;-5.80;100.00;99537.88;1223913;75;2936907;-66
2024/01/29 06:28:14;;;;;;;8.20;5.10;;;;;;;-5.85;100.00;99540.72;1223710;75;2926007;-66
2024/01/29 06:30:50;;;;;;;7.75;4.75;;;;;;;-5.77;100.00;99537.25;1223228;75;2925823;-65
2024/01/29 06:33:24;;;;;;;5.35;3.60;;;;;;;-5.55;100.00;99548.78;1224320;75;2920940;-67
2024/01/29 06:35:59;;;;;;;6.60;4.20;;;;;;;-5.58;100.00;99553.66;1223739;75;2927698;-65
2024/01/29 06:38:32;;;;;;;6.75;4.10;;;;;;;-5.55;100.00;99557.56;1222787;75;2928164;-65
2024/01/29 06:41:05;;;;;;;6.15;3.95;;;;;;;-5.48;100.00;99562.38;1222887;75;2922598;-64
2024/01/29 06:43:38;;;;;;;6.85;4.45;;;;;;;-5.52;100.00;99554.25;1222721;75;2926973;-68
2024/01/29 06:46:13;;;;;;;7.80;4.95;;;;;;;-5.54;100.00;99559.09;1223315;75;2922616;-65
2024/01/29 06:48:46;;;;;;;8.25;4.90;;;;;;;-5.48;100.00;99560.50;1223602;75;2923448;-65
2024/01/29 06:51:20;;;;;;;5.75;3.90;;;;;;;-5.41;100.00;99562.66;1223599;75;2919435;-66
2024/01/29 06:53:53;;;;;;;5.50;3.60;;;;;;;-5.27;100.00;99565.88;1223513;75;2925982;-65
2024/01/29 06:56:26;;;;;;;5.90;3.60;;;;;;;-5.24;100.00;99570.59;1223084;75;2929187;-63
2024/01/29 06:58:59;;;;;;;5.70;3.70;;;;;;;-5.19;100.00;99574.97;1223993;75;2928125;-65
2024/01/29 07:01:35;;;;;;;7.80;5.00;;;;;;;-5.21;100.00;99569.94;1223230;75;2926153;-63
2024/01/29 07:04:08;;;;;;;15.15;7.85;;;;;;;-5.18;100.00;99579.97;1223847;75;2923029;-64
2024/01/29 07:06:41;;;;;;;14.75;9.25;;;;;;;-5.15;100.00;99589.22;1223611;75;2921933;-66
2024/01/29 07:09:13;;;;;;;14.80;8.45;;;;;;;-5.06;100.00;99599.84;1224645;75;2886390;-64
2024/01/29 07:11:47;;;;;;;15.45;9.70;;;;;;;-4.93;100.00;99604.16;1222201;75;2921811;-67
2024/01/29 07:14:19;;;;;;;19.20;11.65;;;;;;;-4.30;100.00;99604.97;1224126;75;2923647;-64
2024/01/29 07:16:58;;;;;;;15.00;8.95;;;;;;;-1.59;100.00;99605.44;1223513;75;2924915;-67
2024/01/29 07:19:33;;;;;;;9.90;6.90;;;;;;;0.72;85.76;99603.53;1224143;75;2924946;-68
2024/01/29 07:22:08;;;;;;;11.70;6.40;;;;;;;1.44;76.89;99605.31;1223003;75;2922406;-66
2024/01/29 07:24:41;;;;;;;12.20;6.60;;;;;;;2.63;70.94;99601.94;1224821;75;2844484;-66
2024/01/29 07:27:14;;;;;;;12.65;6.90;;;;;;;4.39;63.63;99603.53;1223738;75;2925104;-63
2024/01/29 07:29:46;;;;;;;12.70;7.35;;;;;;;3.90;62.86;99610.41;1223648;75;2924259;-65
2024/01/29 07:32:22;;;;;;;13.85;7.90;;;;;;;4.07;62.75;99604.25;1224919;75;2921963;-65
2024/01/29 07:34:55;;;;;;;12.10;7.35;;;;;;;4.93;60.40;99603.53;1223753;75;2925602;-66
2024/01/29 07:37:27;;;;;;;10.85;7.35;;;;;;;5.30;57.89;99605.78;1224628;75;2923594;-66
2024/01/29 07:40:03;;;;;;;14.90;7.85;;;;;;;6.15;57.61;99609.34;1210446;75;3937781;-64
2024/01/29 07:42:36;;;;;;;10.60;6.85;;;;;;;8.23;52.36;99605.31;1224199;75;2922353;-66
2024/01/29 07:45:09;;;;;;;9.05;6.25;;;;;;;8.51;50.31;99604.16;1224251;75;2920779;-65
2024/01/29 07:47:45;;;;;;;9.45;5.70;;;;;;;9.82;47.46;99604.91;1223471;75;2921509;-67
2024/01/29 07:50:18;;;;;;;8.65;6.30;;;;;;;5.49;53.12;99610.78;1223832;75;2925094;-68
2024/01/29 07:52:51;;;;;;;9.55;6.75;;;;;;;4.02;60.21;99618.94;1224257;75;2920137;-67
2024/01/29 07:55:23;;;;;;;8.70;5.60;;;;;;;3.53;61.68;99608.69;1224511;75;2918408;-66
2024/01/29 07:57:56;;;;;;;8.10;5.15;;;;;;;3.54;62.42;99613.75;1223761;75;2924412;-68
2024/01/29 08:00:29;;;;;;;6.85;4.75;;;;;;;3.03;63.47;99619.22;1224351;75;2922972;-65
2024/01/29 08:03:06;;;;;;;6.80;4.70;;;;;;;2.11;66.64;99626.16;1223858;75;2934391;-65
2024/01/29 08:05:39;;;;;;;8.40;4.95;;;;;;;4.13;62.28;99624.38;1224220;75;2921274;-65
2024/01/29 08:08:11;;;;;;;7.90;5.05;;;;;;;5.34;60.12;99631.00;1223535;75;2927665;-65
2024/01/29 08:10:44;;;;;;;9.70;5.65;;;;;;;5.66;56.83;99633.63;1224286;75;2922405;-65
2024/01/29 08:13:18;;;;;;;11.05;6.85;;;;;;;4.52;59.82;99637.22;1223974;75;2924039;-66
2024/01/29 08:15:51;;;;;;;11.00;6.80;;;;;;;6.53;57.12;99632.03;1224237;75;2899200;-66
2024/01/29 08:18:26;;;;;;;11.35;7.20;;;;;;;6.36;56.06;99630.97;1223754;75;2925390;-67
2024/01/29 08:20:59;;;;;;;13.20;7.80;;;;;;;6.17;56.22;99628.75;1224413;75;2923776;-66
2024/01/29 08:23:33;;;;;;;14.20;8.50;;;;;;;4.69;59.22;99641.16;1223748;75;2920834;-66
2024/01/29 08:26:06;;;;;;;13.80;8.50;;;;;;;6.00;59.61;99635.06;1224415;75;2922072;-63
2024/01/29 08:28:39;;;;;;;12.60;8.30;;;;;;;6.89;56.01;99639.16;1224219;75;2921102;-65
2024/01/29 08:31:12;;;;;;;13.15;8.40;;;;;;;5.83;56.98;99632.00;1223920;75;2915149;-65
2024/01/29 08:33:47;;;;;;;12.45;8.35;;;;;;;6.66;55.89;99629.59;1223378;75;2924889;-65
2024/01/29 08:36:22;;;;;;;10.55;7.05;;;;;;;8.60;53.16;99624.69;1222666;75;2923120;-66
2024/01/29 08:38:55;;;;;;;10.30;6.65;;;;;;;9.55;50.67;99628.91;1222992;75;2921833;-65
2024/01/29 08:41:28;;;;;;;11.25;7.15;;;;;;;8.05;51.56;99630.09;1223437;75;2916930;-66
2024/01/29 08:44:03;;;;;;;12.80;8.25;;;;;;;7.01;54.19;99631.25;1223737;83;2921334;-67
2024/01/29 08:46:35;;;;;;;10.30;6.95;;;;;;;7.22;54.20;99627.56;1223873;75;2920535;-65
2024/01/29 08:49:12;;;;;;;10.10;7.35;;;;;;;7.22;54.18;99633.03;1188147;75;5754355;-64
2024/01/29 08:51:45;;;;;;;11.30;7.15;;;;;;;7.03;54.25;99628.16;1223374;75;2920819;-68
2024/01/29 08:54:18;;;;;;;14.90;8.95;;;;;;;5.18;57.35;99630.66;1224504;75;2917170;-67
2024/01/29 08:56:52;;;;;;;13.90;8.85;;;;;;;5.23;60.09;99627.53;1224278;75;2917685;-64
2024/01/29 08:59:29;;;;;;;14.35;8.20;;;;;;;5.34;60.46;99639.94;1224367;75;2923044;-68
2024/01/29 09:02:02;;;;;;;12.70;7.85;;;;;;;6.43;57.86;99640.28;1224462;75;2922364;-67
2024/01/29 09:04:38;;;;;;;14.45;8.55;;;;;;;4.58;61.04;99637.66;1223915;75;2921920;-65
2024/01/29 09:07:10;;;;;;;15.50;8.25;;;;;;;4.61;62.04;99634.16;1223700;83;2925073;-65
2024/01/29 09:09:43;;;;;;;12.30;8.50;;;;;;;4.17;63.21;99641.44;1223965;75;2922234;-64
2024/01/29 09:12:19;;;;;;;16.50;9.10;;;;;;;3.11;65.98;99634.38;1223621;75;2917957;-66
2024/01/29 09:14:52;;;;;;;14.00;8.75;;;;;;;3.50;66.93;99642.72;1224481;75;2921323;-68
2024/01/29 09:17:24;;;;;;;16.05;8.50;;;;;;;4.68;64.31;99634.16;1224105;75;2926980;-65
2024/01/29 09:20:00;;;;;;;12.45;7.15;;;;;;;5.69;61.18;99648.38;1223483;75;2926378;-69
2024/01/29 09:22:33;;;;;;;10.35;6.45;;;;;;;6.40;59.90;99641.84;1224249;75;2919895;-67
2024/01/29 09:25:07;;;;;;;10.85;6.10;;;;;;;6.93;57.17;99643.41;1223221;75;2926453;-66
2024/01/29 09:27:40;;;;;;;11.00;5.90;;;;;;;7.81;57.37;99642.09;1224295;75;2919874;-65
2024/01/29 09:30:14;;;;;;;15.55;7.50;;;;;;;7.14;56.46;99653.31;1224048;75;2918920;-64
2024/01/29 09:32:47;;;;;;;12.70;8.00;;;;;;;8.04;55.67;99641.44;1224098;75;2920147;-66
2024/01/29 09:35:22;;;;;;;14.15;7.20;;;;;;;7.82;54.60;99646.41;1224512;75;2920044;-64
2024/01/29 09:37:55;;;;;;;12.80;7.75;;;;;;;8.27;54.41;99651.66;1223669;75;2921597;-65
2024/01/29 09:40:28;;;;;;;16.25;8.55;;;;;;;8.70;53.54;99640.91;1223062;75;2938398;-66
2024/01/29 09:43:03;;;;;;;17.75;8.65;;;;;;;7.58;54.65;99645.50;1224360;75;2923973;-66
2024/01/29 09:45:37;;;;;;;15.30;8.35;;;;;;;7.52;55.15;99642.44;1223884;75;2922040;-67
2024/01/29 09:48:17;;;;;;;12.15;7.30;;;;;;;8.03;54.34;99634.44;1224465;75;2921439;-65
2024/01/29 09:50:54;;;;;;;20.65;8.40;;;;;;;8.42;53.23;99633.13;1223865;75;2918611;-64
2024/01/29 09:53:28;;;;;;;18.05;7.95;;;;;;;8.84;52.40;99634.44;1224669;75;2919135;-65
2024/01/29 09:56:00;;;;;;;14.25;7.90;;;;;;;10.00;50.28;99633.88;1224371;75;2923985;-65
2024/01/29 09:58:35;;;;;;;16.65;7.60;;;;;;;9.05;52.18;99630.59;1224367;75;2922073;-67
2024/01/29 10:01:11;;;;;;;18.20;9.60;;;;;;;9.33;50.98;99629.31;1223476;75;2922355;-64
2024/01/29 10:03:45;;;;;;;18.00;8.85;;;;;;;9.14;51.37;99627.34;1225222;75;2914381;-65
2024/01/29 10:06:20;;;;;;;17.15;8.10;;;;;;;9.64;50.06;99612.69;1224435;75;2924886;-64
2024/01/29 10:08:57;;;;;;;12.35;6.55;;;;;;;10.78;47.68;99625.88;1224661;75;2923075;-66
2024/01/29 10:11:30;;;;;;;16.40;7.20;;;;;;;11.26;46.58;99627.00;1224320;75;2917882;-67
2024/01/29 10:14:03;;;;;;;12.85;6.40;;;;;;;10.83;46.29;99638.28;1224333;75;2922658;-66
2024/01/29 10:16:37;;;;;;;11.10;6.15;;;;;;;11.13;46.67;99626.16;1223752;75;2939990;-66
2024/01/29 10:19:10;;;;;;;10.45;5.55;;;;;;;12.03;44.77;99621.03;1224487;75;2917050;-67
2024/01/29 10:21:47;;;;;;;11.65;5.10;;;;;;;12.43;43.46;99621.34;1225198;75;2916184;-66
2024/01/29 10:24:20;;;;;;;7.90;4.70;;;;;;;13.49;42.36;99620.25;1225002;75;2922715;-66
2024/01/29 10:26:53;;;;;;;12.85;5.85;;;;;;;12.27;42.57;99618.72;1225345;75;2926505;-68
2024/01/29 10:29:30;;;;;;;11.75;5.80;;;;;;;11.69;43.28;99614.88;1224410;75;2920687;-65
2024/01/29 10:32:07;;;;;;;13.85;6.25;;;;;;;12.25;44.27;99612.91;1224915;75;2921806;-66
2024/01/29 10:34:40;;;;;;;9.15;5.20;;;;;;;12.96;43.14;99615.34;1224983;75;2919626;-64
2024/01/29 10:37:18;;;;;;;10.15;5.75;;;;;;;12.01;44.43;99612.44;1224796;75;2922645;-67
2024/01/29 10:39:52;;;;;;;8.20;5.20;;;;;;;12.60;43.66;99608.25;1224502;75;2922679;-65
2024/01/29 10:42:28;;;;;;;10.10;6.00;;;;;;;11.44;45.04;99609.31;1224520;75;2921997;-68
2024/01/29 10:45:05;;;;;;;10.70;6.10;;;;;;;12.29;44.50;99603.34;1224530;75;2938935;-67
2024/01/29 10:47:49;;;;;;;10.20;5.50;;;;;;;11.63;44.36;99599.38;1224099;75;2935526;-66
2024/01/29 10:50:23;;;;;;;8.00;5.00;;;;;;;12.65;43.98;99588.50;1224440;75;2919675;-64
2024/01/29 10:52:59;;;;;;;8.20;4.75;;;;;;;12.44;43.73;99580.94;1224143;75;2916041;-64
2024/01/29 10:55:32;;;;;;;7.65;5.10;;;;;;;13.45;41.74;99576.34;1225114;75;2918267;-68
2024/01/29 10:58:07;;;;;;;14.70;6.65;;;;;;;14.61;40.61;99579.81;1224545;75;2924274;-66
2024/01/29 11:00:40;;;;;;;8.65;4.65;;;;;;;14.32;40.39;99569.13;1224737;75;2928635;-68
2024/01/29 11:03:17;;;;;;;7.80;4.70;;;;;;;14.17;41.07;99570.94;1224408;75;2929472;-68
2024/01/29 11:05:57;;;;;;;9.80;5.05;;;;;;;14.34;41.21;99566.69;1223645;75;2918795;-69
2024/01/29 11:08:39;;;;;;;13.20;6.15;;;;;;;12.34;42.83;99572.59;1224557;75;2920344;-63
2024/01/29 11:11:14;;;;;;;12.60;5.35;;;;;;;12.82;43.29;99566.34;1224633;75;2919686;-64
2024/01/29 11:13:47;;;;;;;13.00;5.95;;;;;;;11.84;45.79;99574.06;1222803;75;2923568;-65
2024/01/29 11:16:20;;;;;;;10.55;5.30;;;;;;;13.39;42.28;99565.16;1222627;75;2944771;-67
2024/01/29 11:18:53;;;;;;;10.85;5.75;;;;;;;12.94;43.50;99557.28;1223805;75;2923259;-67
2024/01/29 11:21:28;;;;;;;11.90;5.95;;;;;;;12.51;44.34;99561.47;1223769;75;2924339;-68
2024/01/29 11:24:03;;;;;;;9.15;5.10;;;;;;;12.89;44.36;99555.09;1223310;75;2925243;-66
2024/01/29 11:26:36;;;;;;;9.85;5.95;;;;;;;12.52;44.75;99549.25;1222835;75;2925252;-65
2024/01/29 11:29:10;;;;;;;9.10;5.50;;;;;;;12.53;44.36;99539.81;1223571;75;2927065;-64
2024/01/29 11:31:45;;;;;;;12.60;5.95;;;;;;;11.30;46.19;99545.44;1224007;75;2925119;-66
2024/01/29 11:34:17;;;;;;;10.25;6.05;;;;;;;11.95;46.07;99540.84;1222185;75;2924380;-66
2024/01/29 11:36:57;;;;;;;13.25;5.90;;;;;;;12.95;44.70;99534.09;1222336;75;2925441;-66
2024/01/29 11:39:34;;;;;;;9.65;5.75;;;;;;;13.08;43.64;99536.78;1222929;75;2921664;-65
2024/01/29 11:42:07;;;;;;;9.05;5.60;;;;;;;12.92;44.32;99519.25;1222578;75;2927519;-66